N735LU EGGP-EHAM
Flight info
| Callsign | N735LU |
|---|---|
| Flight time | 0h 51m |
| Altitude | 33000 |
| Route | N0463F330 BARTN L975 DESIG L603 LAMSO |
| Aircraft | CL60/M-SBDE1E2E3FGHIJ1J4J5J7M3RWXYZ/LB1V1D1 |
Departure
| Time | 2026-05-03 21:50 |
|---|---|
| Airport | Liverpool John Lennon Airport (EGGP) |
Arrival
| Time | 2026-05-03 22:41 |
|---|---|
| Airport | Amsterdam Airport Schiphol (EHAM) |
| Time | Latitude | Longitude | Altitude | Speed | Heading |
|---|---|---|---|---|---|
| 2026-05-03 21:11 | 53.33554 | -2.85790 | 79 ft | 0 kts | 24° |
| 2026-05-03 21:43 | 53.33570 | -2.85787 | 79 ft | 4 kts | 356° |
| 2026-05-03 21:43 | 53.33601 | -2.85827 | 79 ft | 7 kts | 265° |
| 2026-05-03 21:43 | 53.33584 | -2.85930 | 79 ft | 11 kts | 211° |
| 2026-05-03 21:43 | 53.33494 | -2.85949 | 79 ft | 15 kts | 217° |
| 2026-05-03 21:44 | 53.33476 | -2.86143 | 79 ft | 18 kts | 265° |
| 2026-05-03 21:44 | 53.33466 | -2.86383 | 79 ft | 22 kts | 265° |
| 2026-05-03 21:44 | 53.33454 | -2.86608 | 79 ft | 14 kts | 264° |
| 2026-05-03 21:44 | 53.33421 | -2.86711 | 79 ft | 7 kts | 211° |
| 2026-05-03 21:45 | 53.33408 | -2.86723 | 79 ft | 0 kts | 205° |
| 2026-05-03 21:46 | 53.33405 | -2.86725 | 79 ft | 0 kts | 204° |
| 2026-05-03 21:47 | 53.33364 | -2.86734 | 79 ft | 9 kts | 170° |
| 2026-05-03 21:47 | 53.33297 | -2.86669 | 79 ft | 9 kts | 134° |
| 2026-05-03 21:48 | 53.33287 | -2.86624 | 79 ft | 0 kts | 86° |
| 2026-05-03 21:50 | 53.33287 | -2.86619 | 79 ft | 5 kts | 86° |
| 2026-05-03 21:50 | 53.33316 | -2.86008 | 80 ft | 105 kts | 85° |
| 2026-05-03 21:50 | 53.33389 | -2.84399 | 459 ft | 155 kts | 84° |
| 2026-05-03 21:50 | 53.33609 | -2.82471 | 1252 ft | 182 kts | 65° |
| 2026-05-03 21:51 | 53.34473 | -2.80921 | 2192 ft | 196 kts | 22° |
| 2026-05-03 21:51 | 53.35840 | -2.80729 | 3132 ft | 205 kts | 1° |
| 2026-05-03 21:51 | 53.37297 | -2.80815 | 3601 ft | 206 kts | 358° |
| 2026-05-03 21:51 | 53.38845 | -2.80966 | 3818 ft | 238 kts | 359° |
| 2026-05-03 21:52 | 53.40587 | -2.81073 | 3977 ft | 250 kts | 359° |
| 2026-05-03 21:52 | 53.42314 | -2.80748 | 4425 ft | 252 kts | 24° |
| 2026-05-03 21:52 | 53.43601 | -2.78805 | 5301 ft | 254 kts | 62° |
| 2026-05-03 21:52 | 53.44058 | -2.75909 | 6278 ft | 268 kts | 81° |
| 2026-05-03 21:53 | 53.44318 | -2.72748 | 7526 ft | 284 kts | 81° |
| 2026-05-03 21:53 | 53.44596 | -2.69511 | 9174 ft | 287 kts | 81° |
| 2026-05-03 21:53 | 53.44893 | -2.66159 | 10665 ft | 297 kts | 80° |
| 2026-05-03 21:53 | 53.45225 | -2.62531 | 11366 ft | 331 kts | 80° |
| 2026-05-03 21:54 | 53.45598 | -2.58576 | 12332 ft | 351 kts | 80° |
| 2026-05-03 21:54 | 53.45992 | -2.54473 | 13449 ft | 362 kts | 79° |
| 2026-05-03 21:54 | 53.46400 | -2.50313 | 14670 ft | 369 kts | 79° |
| 2026-05-03 21:54 | 53.46843 | -2.46000 | 15849 ft | 376 kts | 79° |
| 2026-05-03 21:55 | 53.47285 | -2.41777 | 16962 ft | 381 kts | 79° |
| 2026-05-03 21:55 | 53.47564 | -2.37342 | 18120 ft | 385 kts | 92° |
| 2026-05-03 21:55 | 53.47127 | -2.33067 | 19167 ft | 389 kts | 102° |
| 2026-05-03 21:55 | 53.46536 | -2.28679 | 19955 ft | 400 kts | 102° |
| 2026-05-03 21:56 | 53.45931 | -2.24154 | 20876 ft | 406 kts | 102° |
| 2026-05-03 21:56 | 53.45315 | -2.19554 | 21873 ft | 409 kts | 102° |
| 2026-05-03 21:56 | 53.44679 | -2.14817 | 22807 ft | 412 kts | 103° |
| 2026-05-03 21:56 | 53.44035 | -2.10024 | 23678 ft | 417 kts | 103° |
| 2026-05-03 21:57 | 53.43396 | -2.05293 | 24481 ft | 422 kts | 103° |
| 2026-05-03 21:57 | 53.42732 | -2.00387 | 25163 ft | 429 kts | 103° |
| 2026-05-03 21:57 | 53.42069 | -1.95502 | 25863 ft | 433 kts | 103° |
| 2026-05-03 21:57 | 53.41393 | -1.90536 | 26536 ft | 437 kts | 103° |
| 2026-05-03 21:58 | 53.40713 | -1.85560 | 27130 ft | 442 kts | 103° |
| 2026-05-03 21:58 | 53.40015 | -1.80465 | 27693 ft | 447 kts | 104° |
| 2026-05-03 21:58 | 53.39323 | -1.75433 | 28223 ft | 451 kts | 104° |
| 2026-05-03 21:58 | 53.38633 | -1.70427 | 28724 ft | 455 kts | 104° |
| 2026-05-03 21:59 | 53.37936 | -1.65392 | 29225 ft | 458 kts | 104° |
| 2026-05-03 21:59 | 53.37214 | -1.60187 | 29727 ft | 461 kts | 104° |
| 2026-05-03 21:59 | 53.36485 | -1.54958 | 30326 ft | 461 kts | 104° |
| 2026-05-03 21:59 | 53.35753 | -1.49717 | 30956 ft | 459 kts | 104° |
| 2026-05-03 22:00 | 53.35027 | -1.44532 | 31515 ft | 457 kts | 104° |
| 2026-05-03 22:00 | 53.34307 | -1.39416 | 32039 ft | 455 kts | 104° |
| 2026-05-03 22:00 | 53.33606 | -1.34446 | 32514 ft | 454 kts | 105° |
| 2026-05-03 22:00 | 53.32901 | -1.29470 | 32814 ft | 458 kts | 105° |
| 2026-05-03 22:01 | 53.31396 | -1.18905 | 32924 ft | 469 kts | 105° |
| 2026-05-03 22:01 | 53.29879 | -1.08320 | 32936 ft | 469 kts | 105° |
| 2026-05-03 22:02 | 53.28355 | -0.97759 | 32932 ft | 468 kts | 105° |
| 2026-05-03 22:02 | 53.26820 | -0.87187 | 32929 ft | 467 kts | 105° |
| 2026-05-03 22:03 | 53.25275 | -0.76627 | 32939 ft | 467 kts | 105° |
| 2026-05-03 22:03 | 53.23714 | -0.66025 | 32933 ft | 468 kts | 106° |
| 2026-05-03 22:04 | 53.22150 | -0.55475 | 32942 ft | 468 kts | 106° |
| 2026-05-03 22:04 | 53.20568 | -0.44870 | 32925 ft | 469 kts | 106° |
| 2026-05-03 22:05 | 53.18984 | -0.34322 | 32932 ft | 469 kts | 107° |
| 2026-05-03 22:05 | 53.17372 | -0.23662 | 32941 ft | 469 kts | 107° |
| 2026-05-03 22:06 | 53.15760 | -0.13073 | 32928 ft | 469 kts | 107° |
| 2026-05-03 22:06 | 53.14126 | -0.02410 | 32931 ft | 469 kts | 107° |
| 2026-05-03 22:07 | 53.12502 | 0.08115 | 32933 ft | 470 kts | 107° |
| 2026-05-03 22:07 | 53.10849 | 0.18762 | 32916 ft | 471 kts | 107° |
| 2026-05-03 22:08 | 53.09194 | 0.29354 | 32927 ft | 471 kts | 108° |
| 2026-05-03 22:08 | 53.07526 | 0.39963 | 32925 ft | 471 kts | 107° |
| 2026-05-03 22:09 | 53.05848 | 0.50562 | 32928 ft | 471 kts | 108° |
| 2026-05-03 22:10 | 53.03318 | 0.66423 | 32928 ft | 471 kts | 108° |
| 2026-05-03 22:10 | 53.01615 | 0.77008 | 32919 ft | 471 kts | 108° |
| 2026-05-03 22:11 | 52.99897 | 0.87630 | 32913 ft | 472 kts | 109° |
| 2026-05-03 22:11 | 52.98178 | 0.98195 | 32907 ft | 473 kts | 108° |
| 2026-05-03 22:12 | 52.96827 | 1.08891 | 32907 ft | 475 kts | 104° |
| 2026-05-03 22:12 | 52.95577 | 1.19789 | 32909 ft | 476 kts | 104° |
| 2026-05-03 22:13 | 52.94320 | 1.30634 | 32911 ft | 475 kts | 104° |
| 2026-05-03 22:13 | 52.93061 | 1.41392 | 32908 ft | 475 kts | 104° |
| 2026-05-03 22:14 | 52.91780 | 1.52236 | 32909 ft | 475 kts | 104° |
| 2026-05-03 22:14 | 52.90489 | 1.63066 | 32909 ft | 475 kts | 104° |
| 2026-05-03 22:15 | 52.89296 | 1.72992 | 32910 ft | 475 kts | 105° |
| 2026-05-03 22:15 | 52.87999 | 1.83695 | 32620 ft | 475 kts | 105° |
| 2026-05-03 22:15 | 52.87398 | 1.88627 | 32102 ft | 471 kts | 105° |
| 2026-05-03 22:16 | 52.86749 | 1.93929 | 31483 ft | 468 kts | 105° |
| 2026-05-03 22:16 | 52.86100 | 1.99214 | 30867 ft | 466 kts | 105° |
| 2026-05-03 22:16 | 52.85442 | 2.04550 | 30223 ft | 465 kts | 105° |
| 2026-05-03 22:16 | 52.84808 | 2.09665 | 29649 ft | 466 kts | 105° |
| 2026-05-03 22:17 | 52.84142 | 2.15016 | 29010 ft | 468 kts | 105° |
| 2026-05-03 22:17 | 52.83481 | 2.20309 | 28387 ft | 466 kts | 105° |
| 2026-05-03 22:17 | 52.82811 | 2.25657 | 27754 ft | 462 kts | 105° |
| 2026-05-03 22:17 | 52.82155 | 2.30888 | 27141 ft | 458 kts | 105° |
| 2026-05-03 22:18 | 52.81493 | 2.36133 | 26521 ft | 453 kts | 104° |
| 2026-05-03 22:18 | 52.80841 | 2.41275 | 25913 ft | 449 kts | 105° |
| 2026-05-03 22:18 | 52.80199 | 2.46324 | 25322 ft | 446 kts | 104° |
| 2026-05-03 22:18 | 52.79560 | 2.51328 | 24728 ft | 441 kts | 104° |
| 2026-05-03 22:19 | 52.78920 | 2.56323 | 24170 ft | 436 kts | 104° |
| 2026-05-03 22:19 | 52.78294 | 2.61192 | 23720 ft | 432 kts | 104° |
| 2026-05-03 22:19 | 52.77660 | 2.66102 | 23313 ft | 431 kts | 105° |
| 2026-05-03 22:19 | 52.77021 | 2.71037 | 22805 ft | 429 kts | 105° |
| 2026-05-03 22:20 | 52.76411 | 2.75728 | 22352 ft | 426 kts | 105° |
| 2026-05-03 22:20 | 52.75807 | 2.80361 | 21892 ft | 423 kts | 105° |
| 2026-05-03 22:20 | 52.75173 | 2.85204 | 21414 ft | 420 kts | 105° |
| 2026-05-03 22:20 | 52.74541 | 2.90017 | 20938 ft | 418 kts | 105° |
| 2026-05-03 22:21 | 52.73904 | 2.94854 | 20462 ft | 415 kts | 105° |
| 2026-05-03 22:21 | 52.73151 | 2.99518 | 20002 ft | 408 kts | 114° |
| 2026-05-03 22:21 | 52.71814 | 3.03742 | 19516 ft | 403 kts | 123° |
| 2026-05-03 22:21 | 52.70406 | 3.07738 | 19085 ft | 401 kts | 123° |
| 2026-05-03 22:22 | 52.68981 | 3.11797 | 18627 ft | 399 kts | 123° |
| 2026-05-03 22:22 | 52.67588 | 3.15762 | 18187 ft | 397 kts | 123° |
| 2026-05-03 22:22 | 52.66179 | 3.19765 | 17729 ft | 395 kts | 122° |
| 2026-05-03 22:22 | 52.64789 | 3.23707 | 17286 ft | 393 kts | 122° |
| 2026-05-03 22:23 | 52.63406 | 3.27628 | 16845 ft | 390 kts | 122° |
| 2026-05-03 22:23 | 52.62027 | 3.31529 | 16419 ft | 388 kts | 122° |
| 2026-05-03 22:23 | 52.60667 | 3.35369 | 15990 ft | 386 kts | 122° |
| 2026-05-03 22:23 | 52.59309 | 3.39218 | 15564 ft | 383 kts | 121° |
| 2026-05-03 22:24 | 52.58323 | 3.43319 | 15142 ft | 385 kts | 105° |
| 2026-05-03 22:24 | 52.57831 | 3.47747 | 14679 ft | 383 kts | 101° |
| 2026-05-03 22:24 | 52.57377 | 3.52087 | 14260 ft | 378 kts | 101° |
| 2026-05-03 22:24 | 52.56923 | 3.56370 | 13845 ft | 372 kts | 101° |
| 2026-05-03 22:25 | 52.56482 | 3.60524 | 13437 ft | 365 kts | 101° |
| 2026-05-03 22:25 | 52.56045 | 3.64609 | 13046 ft | 358 kts | 101° |
| 2026-05-03 22:25 | 52.55598 | 3.68793 | 12636 ft | 349 kts | 102° |
| 2026-05-03 22:25 | 52.55190 | 3.72584 | 12267 ft | 342 kts | 102° |
| 2026-05-03 22:26 | 52.54774 | 3.76444 | 11892 ft | 333 kts | 102° |
| 2026-05-03 22:26 | 52.54367 | 3.80205 | 11519 ft | 325 kts | 102° |
| 2026-05-03 22:26 | 52.53972 | 3.83840 | 11165 ft | 317 kts | 102° |
| 2026-05-03 22:26 | 52.53583 | 3.87405 | 10811 ft | 309 kts | 102° |
| 2026-05-03 22:27 | 52.53202 | 3.90895 | 10471 ft | 303 kts | 103° |
| 2026-05-03 22:27 | 52.52825 | 3.94334 | 10136 ft | 296 kts | 103° |
| 2026-05-03 22:27 | 52.52428 | 3.97646 | 9816 ft | 290 kts | 105° |
| 2026-05-03 22:27 | 52.51996 | 4.00876 | 9581 ft | 284 kts | 105° |
| 2026-05-03 22:28 | 52.51561 | 4.04101 | 9690 ft | 293 kts | 105° |
| 2026-05-03 22:28 | 52.51112 | 4.07423 | 9830 ft | 297 kts | 105° |
| 2026-05-03 22:28 | 52.50654 | 4.10805 | 9915 ft | 300 kts | 105° |
| 2026-05-03 22:28 | 52.50191 | 4.14220 | 9918 ft | 300 kts | 105° |
| 2026-05-03 22:29 | 52.49741 | 4.17529 | 9900 ft | 299 kts | 105° |
| 2026-05-03 22:29 | 52.49274 | 4.20961 | 9913 ft | 300 kts | 105° |
| 2026-05-03 22:29 | 52.48804 | 4.24399 | 9909 ft | 300 kts | 105° |
| 2026-05-03 22:29 | 52.48344 | 4.27766 | 9906 ft | 300 kts | 105° |
| 2026-05-03 22:30 | 52.47880 | 4.31147 | 9924 ft | 300 kts | 105° |
| 2026-05-03 22:30 | 52.47413 | 4.34539 | 9918 ft | 301 kts | 105° |
| 2026-05-03 22:30 | 52.46946 | 4.37925 | 9898 ft | 300 kts | 105° |
| 2026-05-03 22:30 | 52.46474 | 4.41340 | 9910 ft | 301 kts | 105° |
| 2026-05-03 22:31 | 52.46005 | 4.44724 | 9917 ft | 301 kts | 105° |
| 2026-05-03 22:31 | 52.45529 | 4.48153 | 9911 ft | 301 kts | 105° |
| 2026-05-03 22:31 | 52.45061 | 4.51518 | 9889 ft | 300 kts | 105° |
| 2026-05-03 22:31 | 52.44591 | 4.54887 | 9621 ft | 297 kts | 105° |
| 2026-05-03 22:32 | 52.44134 | 4.58156 | 9289 ft | 290 kts | 105° |
| 2026-05-03 22:32 | 52.43686 | 4.61364 | 9008 ft | 283 kts | 105° |
| 2026-05-03 22:32 | 52.43240 | 4.64539 | 8680 ft | 283 kts | 105° |
| 2026-05-03 22:32 | 52.42810 | 4.67589 | 8394 ft | 282 kts | 105° |
| 2026-05-03 22:33 | 52.42377 | 4.70661 | 8084 ft | 282 kts | 105° |
| 2026-05-03 22:33 | 52.41957 | 4.73633 | 7772 ft | 280 kts | 105° |
| 2026-05-03 22:33 | 52.41517 | 4.76745 | 7490 ft | 278 kts | 105° |
| 2026-05-03 22:33 | 52.41087 | 4.79774 | 7183 ft | 279 kts | 105° |
| 2026-05-03 22:34 | 52.40644 | 4.82885 | 6857 ft | 277 kts | 105° |
| 2026-05-03 22:34 | 52.40308 | 4.85980 | 6566 ft | 278 kts | 94° |
| 2026-05-03 22:34 | 52.40382 | 4.89136 | 6258 ft | 276 kts | 88° |
| 2026-05-03 22:34 | 52.40494 | 4.92248 | 6024 ft | 278 kts | 88° |
| 2026-05-03 22:35 | 52.40604 | 4.95449 | 5682 ft | 275 kts | 87° |
| 2026-05-03 22:35 | 52.40710 | 4.98579 | 5414 ft | 273 kts | 88° |
| 2026-05-03 22:35 | 52.40777 | 5.01689 | 5060 ft | 268 kts | 95° |
| 2026-05-03 22:35 | 52.40370 | 5.04421 | 4754 ft | 259 kts | 117° |
| 2026-05-03 22:36 | 52.39301 | 5.06789 | 4380 ft | 251 kts | 141° |
| 2026-05-03 22:36 | 52.37842 | 5.08223 | 3963 ft | 245 kts | 163° |
| 2026-05-03 22:36 | 52.36195 | 5.08587 | 3621 ft | 230 kts | 191° |
| 2026-05-03 22:36 | 52.34790 | 5.07665 | 3478 ft | 212 kts | 215° |
| 2026-05-03 22:37 | 52.33620 | 5.06220 | 3178 ft | 211 kts | 222° |
| 2026-05-03 22:37 | 52.32821 | 5.04389 | 2973 ft | 194 kts | 250° |
| 2026-05-03 22:37 | 52.32598 | 5.02304 | 2728 ft | 181 kts | 265° |
| 2026-05-03 22:37 | 52.32520 | 5.00314 | 2499 ft | 169 kts | 266° |
| 2026-05-03 22:38 | 52.32451 | 4.98471 | 2291 ft | 158 kts | 266° |
| 2026-05-03 22:38 | 52.32394 | 4.96800 | 2065 ft | 158 kts | 267° |
| 2026-05-03 22:38 | 52.32336 | 4.95017 | 1839 ft | 151 kts | 267° |
| 2026-05-03 22:38 | 52.32281 | 4.93284 | 1652 ft | 155 kts | 267° |
| 2026-05-03 22:39 | 52.32225 | 4.91544 | 1445 ft | 151 kts | 267° |
| 2026-05-03 22:39 | 52.32176 | 4.90046 | 1312 ft | 133 kts | 266° |
| 2026-05-03 22:39 | 52.32129 | 4.88595 | 1102 ft | 125 kts | 266° |
| 2026-05-03 22:39 | 52.32085 | 4.87259 | 932 ft | 121 kts | 266° |
| 2026-05-03 22:40 | 52.32040 | 4.85921 | 771 ft | 121 kts | 265° |
| 2026-05-03 22:40 | 52.31994 | 4.84583 | 615 ft | 120 kts | 265° |
| 2026-05-03 22:40 | 52.31953 | 4.83249 | 458 ft | 120 kts | 266° |
| 2026-05-03 22:40 | 52.31901 | 4.81923 | 306 ft | 116 kts | 256° |
| 2026-05-03 22:41 | 52.31613 | 4.80734 | 118 ft | 111 kts | 235° |
| 2026-05-03 22:41 | 52.31104 | 4.79885 | 0 ft | 104 kts | 221° |
| 2026-05-03 22:41 | 52.30675 | 4.79260 | -1 ft | 71 kts | 222° |
| 2026-05-03 22:41 | 52.30362 | 4.78813 | -1 ft | 49 kts | 221° |
| 2026-05-03 22:42 | 52.30164 | 4.78536 | -1 ft | 23 kts | 217° |
| 2026-05-03 22:42 | 52.30075 | 4.78564 | -1 ft | 14 kts | 132° |
| 2026-05-03 22:42 | 52.30050 | 4.78712 | -1 ft | 15 kts | 52° |
| 2026-05-03 22:42 | 52.30115 | 4.78804 | -1 ft | 16 kts | 41° |
| 2026-05-03 22:43 | 52.30205 | 4.78936 | -1 ft | 16 kts | 43° |
| 2026-05-03 22:43 | 52.30297 | 4.79068 | -1 ft | 17 kts | 41° |
| 2026-05-03 22:43 | 52.30391 | 4.79202 | -1 ft | 18 kts | 39° |
| 2026-05-03 22:43 | 52.30489 | 4.79342 | -1 ft | 18 kts | 41° |
| 2026-05-03 22:44 | 52.30588 | 4.79485 | -1 ft | 19 kts | 41° |
| 2026-05-03 22:44 | 52.30689 | 4.79628 | -1 ft | 19 kts | 41° |
| 2026-05-03 22:44 | 52.30794 | 4.79778 | -1 ft | 20 kts | 40° |
| 2026-05-03 22:44 | 52.30896 | 4.79923 | -1 ft | 20 kts | 41° |
| 2026-05-03 22:45 | 52.31002 | 4.80076 | -1 ft | 20 kts | 40° |
| 2026-05-03 22:45 | 52.31059 | 4.80227 | -1 ft | 14 kts | 112° |
| 2026-05-03 22:45 | 52.31041 | 4.80269 | -1 ft | 0 kts | 130° |
| 2026-05-03 22:45 | 52.31041 | 4.80306 | -1 ft | 8 kts | 49° |
| 2026-05-03 22:46 | 52.31107 | 4.80400 | -1 ft | 13 kts | 41° |
| 2026-05-03 22:46 | 52.31127 | 4.80466 | -1 ft | 5 kts | 131° |
| 2026-05-03 22:46 | 52.31120 | 4.80478 | -1 ft | 0 kts | 130° |
| 2026-05-03 22:52 | 52.31120 | 4.80479 | -1 ft | 0 kts | 130° |
| 2026-05-03 22:53 | 52.31125 | 4.80469 | -1 ft | 2 kts | 130° |
| 2026-05-03 22:53 | 52.31134 | 4.80453 | -1 ft | 1 kts | 158° |
| 2026-05-03 22:54 | 52.31145 | 4.80455 | -1 ft | 1 kts | 217° |
| 2026-05-03 22:54 | 52.31150 | 4.80471 | -1 ft | 1 kts | 275° |
| 2026-05-03 22:54 | 52.31143 | 4.80489 | -1 ft | 2 kts | 313° |
| 2026-05-03 22:54 | 52.31138 | 4.80499 | -1 ft | 0 kts | 311° |